sensor_id;sensor_type;location;lat;lon;timestamp;temperature;humidity
9393;DHT22;4736;52.508;13.422;2023-08-30T00:00:39;14.60;81.70
9393;DHT22;4736;52.508;13.422;2023-08-30T00:03:44;14.60;81.80
9393;DHT22;4736;52.508;13.422;2023-08-30T00:06:47;14.60;81.80
9393;DHT22;4736;52.508;13.422;2023-08-30T00:09:50;14.60;81.90
9393;DHT22;4736;52.508;13.422;2023-08-30T00:12:54;14.60;82.00
9393;DHT22;4736;52.508;13.422;2023-08-30T00:15:57;14.60;82.00
9393;DHT22;4736;52.508;13.422;2023-08-30T00:19:01;14.60;82.00
9393;DHT22;4736;52.508;13.422;2023-08-30T00:22:05;14.60;81.90
9393;DHT22;4736;52.508;13.422;2023-08-30T00:25:09;14.60;81.90
9393;DHT22;4736;52.508;13.422;2023-08-30T00:28:12;14.60;81.80
9393;DHT22;4736;52.508;13.422;2023-08-30T00:31:15;14.60;81.90
9393;DHT22;4736;52.508;13.422;2023-08-30T00:34:20;14.50;82.00
9393;DHT22;4736;52.508;13.422;2023-08-30T00:37:23;14.60;81.80
9393;DHT22;4736;52.508;13.422;2023-08-30T00:40:28;14.50;81.70
9393;DHT22;4736;52.508;13.422;2023-08-30T00:43:34;14.60;81.70
9393;DHT22;4736;52.508;13.422;2023-08-30T00:46:37;14.50;81.80
9393;DHT22;4736;52.508;13.422;2023-08-30T00:49:42;14.50;81.80
9393;DHT22;4736;52.508;13.422;2023-08-30T00:52:45;14.50;81.80
9393;DHT22;4736;52.508;13.422;2023-08-30T00:55:48;14.50;82.00
9393;DHT22;4736;52.508;13.422;2023-08-30T00:58:51;14.40;82.00
9393;DHT22;4736;52.508;13.422;2023-08-30T01:01:55;14.40;82.00
9393;DHT22;4736;52.508;13.422;2023-08-30T01:05:00;14.40;82.00
9393;DHT22;4736;52.508;13.422;2023-08-30T01:08:07;14.40;82.00
9393;DHT22;4736;52.508;13.422;2023-08-30T01:11:13;14.40;82.00
9393;DHT22;4736;52.508;13.422;2023-08-30T01:14:21;14.40;82.00
9393;DHT22;4736;52.508;13.422;2023-08-30T01:17:26;14.40;82.10
9393;DHT22;4736;52.508;13.422;2023-08-30T01:20:35;14.30;82.20
9393;DHT22;4736;52.508;13.422;2023-08-30T01:23:47;14.30;82.20
9393;DHT22;4736;52.508;13.422;2023-08-30T01:27:05;14.20;82.40
9393;DHT22;4736;52.508;13.422;2023-08-30T01:30:11;14.30;82.40
9393;DHT22;4736;52.508;13.422;2023-08-30T01:33:15;14.30;82.30
9393;DHT22;4736;52.508;13.422;2023-08-30T01:36:19;14.20;82.30
9393;DHT22;4736;52.508;13.422;2023-08-30T01:39:24;14.20;82.30
9393;DHT22;4736;52.508;13.422;2023-08-30T01:42:32;14.20;82.30
9393;DHT22;4736;52.508;13.422;2023-08-30T01:45:39;14.20;82.30
9393;DHT22;4736;52.508;13.422;2023-08-30T01:48:44;14.20;82.20
9393;DHT22;4736;52.508;13.422;2023-08-30T01:51:48;14.20;82.20
9393;DHT22;4736;52.508;13.422;2023-08-30T01:54:52;14.20;82.40
9393;DHT22;4736;52.508;13.422;2023-08-30T01:57:56;14.10;82.30
9393;DHT22;4736;52.508;13.422;2023-08-30T02:01:00;14.20;82.40
9393;DHT22;4736;52.508;13.422;2023-08-30T02:04:06;14.10;82.20
9393;DHT22;4736;52.508;13.422;2023-08-30T02:07:16;14.10;82.30
9393;DHT22;4736;52.508;13.422;2023-08-30T02:10:24;14.10;82.30
9393;DHT22;4736;52.508;13.422;2023-08-30T02:13:30;14.10;82.20
9393;DHT22;4736;52.508;13.422;2023-08-30T02:16:35;14.10;82.20
9393;DHT22;4736;52.508;13.422;2023-08-30T02:19:40;14.10;82.00
9393;DHT22;4736;52.508;13.422;2023-08-30T02:22:43;14.10;82.00
9393;DHT22;4736;52.508;13.422;2023-08-30T02:25:46;14.10;82.00
9393;DHT22;4736;52.508;13.422;2023-08-30T02:28:51;14.00;82.00
9393;DHT22;4736;52.508;13.422;2023-08-30T02:31:54;14.00;82.00
9393;DHT22;4736;52.508;13.422;2023-08-30T02:34:57;14.00;81.90
9393;DHT22;4736;52.508;13.422;2023-08-30T02:38:00;14.00;81.80
9393;DHT22;4736;52.508;13.422;2023-08-30T02:41:07;13.90;81.80
9393;DHT22;4736;52.508;13.422;2023-08-30T02:44:13;13.90;81.80
9393;DHT22;4736;52.508;13.422;2023-08-30T02:47:16;13.90;81.90
9393;DHT22;4736;52.508;13.422;2023-08-30T02:50:19;13.90;81.90
9393;DHT22;4736;52.508;13.422;2023-08-30T02:53:22;13.90;81.90
9393;DHT22;4736;52.508;13.422;2023-08-30T02:56:26;13.80;82.00
9393;DHT22;4736;52.508;13.422;2023-08-30T02:59:30;13.80;82.00
9393;DHT22;4736;52.508;13.422;2023-08-30T03:02:33;13.70;82.00
9393;DHT22;4736;52.508;13.422;2023-08-30T03:05:37;13.70;81.90
9393;DHT22;4736;52.508;13.422;2023-08-30T03:08:41;13.70;81.90
9393;DHT22;4736;52.508;13.422;2023-08-30T03:11:46;13.70;81.80
9393;DHT22;4736;52.508;13.422;2023-08-30T03:14:51;13.60;81.80
9393;DHT22;4736;52.508;13.422;2023-08-30T03:17:54;13.60;81.80
9393;DHT22;4736;52.508;13.422;2023-08-30T03:21:00;13.50;82.20
9393;DHT22;4736;52.508;13.422;2023-08-30T03:24:04;13.50;82.60
9393;DHT22;4736;52.508;13.422;2023-08-30T03:27:08;13.50;82.60
9393;DHT22;4736;52.508;13.422;2023-08-30T03:30:13;13.50;82.60
9393;DHT22;4736;52.508;13.422;2023-08-30T03:33:16;13.50;82.80
9393;DHT22;4736;52.508;13.422;2023-08-30T03:36:19;13.40;82.90
9393;DHT22;4736;52.508;13.422;2023-08-30T03:39:23;13.40;82.80
9393;DHT22;4736;52.508;13.422;2023-08-30T03:42:26;13.30;83.10
9393;DHT22;4736;52.508;13.422;2023-08-30T03:45:34;13.30;83.40
9393;DHT22;4736;52.508;13.422;2023-08-30T03:48:38;13.30;83.40
9393;DHT22;4736;52.508;13.422;2023-08-30T03:51:41;13.30;83.60
9393;DHT22;4736;52.508;13.422;2023-08-30T03:54:44;13.30;83.50
9393;DHT22;4736;52.508;13.422;2023-08-30T03:57:47;13.40;83.60
9393;DHT22;4736;52.508;13.422;2023-08-30T04:00:52;13.50;83.50
9393;DHT22;4736;52.508;13.422;2023-08-30T04:03:55;13.40;83.50
9393;DHT22;4736;52.508;13.422;2023-08-30T04:06:59;13.50;83.50
9393;DHT22;4736;52.508;13.422;2023-08-30T04:10:02;13.50;83.60
9393;DHT22;4736;52.508;13.422;2023-08-30T04:13:09;13.50;83.50
9393;DHT22;4736;52.508;13.422;2023-08-30T04:16:14;13.50;83.40
9393;DHT22;4736;52.508;13.422;2023-08-30T04:19:17;13.50;83.50
9393;DHT22;4736;52.508;13.422;2023-08-30T04:22:21;13.50;83.30
9393;DHT22;4736;52.508;13.422;2023-08-30T04:25:24;13.50;83.40
9393;DHT22;4736;52.508;13.422;2023-08-30T04:28:27;13.50;83.20
9393;DHT22;4736;52.508;13.422;2023-08-30T04:31:32;13.50;83.20
9393;DHT22;4736;52.508;13.422;2023-08-30T04:34:35;13.50;83.20
9393;DHT22;4736;52.508;13.422;2023-08-30T04:37:38;13.50;83.20
9393;DHT22;4736;52.508;13.422;2023-08-30T04:40:41;13.50;83.10
9393;DHT22;4736;52.508;13.422;2023-08-30T04:43:44;13.50;83.10
9393;DHT22;4736;52.508;13.422;2023-08-30T04:46:49;13.60;83.10
9393;DHT22;4736;52.508;13.422;2023-08-30T04:49:53;13.60;83.10
9393;DHT22;4736;52.508;13.422;2023-08-30T04:52:57;13.70;82.80
9393;DHT22;4736;52.508;13.422;2023-08-30T04:56:00;13.70;82.70
9393;DHT22;4736;52.508;13.422;2023-08-30T04:59:04;13.80;82.80
9393;DHT22;4736;52.508;13.422;2023-08-30T05:02:08;13.90;82.60
9393;DHT22;4736;52.508;13.422;2023-08-30T05:05:12;13.90;82.20
9393;DHT22;4736;52.508;13.422;2023-08-30T05:08:15;13.90;82.10
9393;DHT22;4736;52.508;13.422;2023-08-30T05:11:18;14.00;81.80
9393;DHT22;4736;52.508;13.422;2023-08-30T05:14:22;13.90;81.60
9393;DHT22;4736;52.508;13.422;2023-08-30T05:17:27;14.00;82.10
9393;DHT22;4736;52.508;13.422;2023-08-30T05:20:31;14.10;81.50
9393;DHT22;4736;52.508;13.422;2023-08-30T05:23:36;14.20;81.40
9393;DHT22;4736;52.508;13.422;2023-08-30T05:26:42;14.30;81.30
9393;DHT22;4736;52.508;13.422;2023-08-30T05:29:48;14.40;80.60
9393;DHT22;4736;52.508;13.422;2023-08-30T05:32:53;14.40;81.00
9393;DHT22;4736;52.508;13.422;2023-08-30T05:35:56;14.50;80.40
9393;DHT22;4736;52.508;13.422;2023-08-30T05:38:59;14.50;80.40
9393;DHT22;4736;52.508;13.422;2023-08-30T05:42:03;14.50;80.20
9393;DHT22;4736;52.508;13.422;2023-08-30T05:45:07;14.50;80.30
9393;DHT22;4736;52.508;13.422;2023-08-30T05:48:11;14.50;80.30
9393;DHT22;4736;52.508;13.422;2023-08-30T05:51:14;14.60;80.30
9393;DHT22;4736;52.508;13.422;2023-08-30T05:54:17;14.70;80.40
9393;DHT22;4736;52.508;13.422;2023-08-30T05:57:20;14.80;80.30
9393;DHT22;4736;52.508;13.422;2023-08-30T06:00:25;14.80;80.00
9393;DHT22;4736;52.508;13.422;2023-08-30T06:03:30;14.90;79.40
9393;DHT22;4736;52.508;13.422;2023-08-30T06:06:33;15.00;79.40
9393;DHT22;4736;52.508;13.422;2023-08-30T06:09:36;15.10;79.30
9393;DHT22;4736;52.508;13.422;2023-08-30T06:12:39;15.30;79.00
9393;DHT22;4736;52.508;13.422;2023-08-30T06:15:42;15.30;78.40
9393;DHT22;4736;52.508;13.422;2023-08-30T06:18:47;15.40;77.90
9393;DHT22;4736;52.508;13.422;2023-08-30T06:21:51;15.30;77.90
9393;DHT22;4736;52.508;13.422;2023-08-30T06:24:54;15.50;77.80
9393;DHT22;4736;52.508;13.422;2023-08-30T06:27:58;15.60;77.10
9393;DHT22;4736;52.508;13.422;2023-08-30T06:31:03;15.60;76.80
9393;DHT22;4736;52.508;13.422;2023-08-30T06:34:08;15.70;76.50
9393;DHT22;4736;52.508;13.422;2023-08-30T06:37:11;15.70;76.90
9393;DHT22;4736;52.508;13.422;2023-08-30T06:40:14;15.80;76.20
9393;DHT22;4736;52.508;13.422;2023-08-30T06:43:17;15.80;76.20
9393;DHT22;4736;52.508;13.422;2023-08-30T06:46:21;15.90;76.00
9393;DHT22;4736;52.508;13.422;2023-08-30T06:49:26;16.00;75.80
9393;DHT22;4736;52.508;13.422;2023-08-30T06:52:29;16.10;75.90
9393;DHT22;4736;52.508;13.422;2023-08-30T06:55:32;16.20;75.30
9393;DHT22;4736;52.508;13.422;2023-08-30T06:58:37;16.20;75.10
9393;DHT22;4736;52.508;13.422;2023-08-30T07:01:41;16.30;75.00
9393;DHT22;4736;52.508;13.422;2023-08-30T07:04:45;16.40;74.80
9393;DHT22;4736;52.508;13.422;2023-08-30T07:07:48;16.70;74.60
9393;DHT22;4736;52.508;13.422;2023-08-30T07:10:52;16.90;73.80
9393;DHT22;4736;52.508;13.422;2023-08-30T07:13:55;17.00;70.80
9393;DHT22;4736;52.508;13.422;2023-08-30T07:16:58;17.10;70.70
9393;DHT22;4736;52.508;13.422;2023-08-30T07:20:03;17.20;69.80
9393;DHT22;4736;52.508;13.422;2023-08-30T07:23:10;17.20;70.30
9393;DHT22;4736;52.508;13.422;2023-08-30T07:26:13;17.20;70.40
9393;DHT22;4736;52.508;13.422;2023-08-30T07:29:16;17.50;70.90
9393;DHT22;4736;52.508;13.422;2023-08-30T07:32:19;17.50;69.80
9393;DHT22;4736;52.508;13.422;2023-08-30T07:35:24;17.70;69.80
9393;DHT22;4736;52.508;13.422;2023-08-30T07:38:27;17.80;69.20
9393;DHT22;4736;52.508;13.422;2023-08-30T07:41:33;17.80;68.80
9393;DHT22;4736;52.508;13.422;2023-08-30T07:44:37;17.50;69.30
9393;DHT22;4736;52.508;13.422;2023-08-30T07:47:40;17.60;69.20
9393;DHT22;4736;52.508;13.422;2023-08-30T07:50:45;17.60;69.70
9393;DHT22;4736;52.508;13.422;2023-08-30T07:53:48;17.60;68.40
9393;DHT22;4736;52.508;13.422;2023-08-30T07:56:51;17.50;69.00
9393;DHT22;4736;52.508;13.422;2023-08-30T07:59:54;17.50;69.10
9393;DHT22;4736;52.508;13.422;2023-08-30T08:02:57;17.50;69.20
9393;DHT22;4736;52.508;13.422;2023-08-30T08:06:03;17.50;69.30
9393;DHT22;4736;52.508;13.422;2023-08-30T08:09:06;17.60;69.40
9393;DHT22;4736;52.508;13.422;2023-08-30T08:12:10;17.80;69.50
9393;DHT22;4736;52.508;13.422;2023-08-30T08:15:13;17.80;68.70
9393;DHT22;4736;52.508;13.422;2023-08-30T08:18:16;17.60;69.00
9393;DHT22;4736;52.508;13.422;2023-08-30T08:21:21;17.60;68.90
9393;DHT22;4736;52.508;13.422;2023-08-30T08:24:24;17.60;68.70
9393;DHT22;4736;52.508;13.422;2023-08-30T08:27:27;17.50;69.10
9393;DHT22;4736;52.508;13.422;2023-08-30T08:30:32;17.60;69.20
9393;DHT22;4736;52.508;13.422;2023-08-30T08:33:35;17.80;68.40
9393;DHT22;4736;52.508;13.422;2023-08-30T08:36:41;17.80;68.70
9393;DHT22;4736;52.508;13.422;2023-08-30T08:39:45;18.00;68.00
9393;DHT22;4736;52.508;13.422;2023-08-30T08:42:49;18.10;67.60
9393;DHT22;4736;52.508;13.422;2023-08-30T08:45:55;18.30;67.20
9393;DHT22;4736;52.508;13.422;2023-08-30T08:49:02;18.50;66.50
9393;DHT22;4736;52.508;13.422;2023-08-30T08:52:09;18.30;66.50
9393;DHT22;4736;52.508;13.422;2023-08-30T08:55:32;18.20;66.50
9393;DHT22;4736;52.508;13.422;2023-08-30T08:58:37;18.30;67.30
9393;DHT22;4736;52.508;13.422;2023-08-30T09:01:41;18.50;66.90
9393;DHT22;4736;52.508;13.422;2023-08-30T09:04:45;18.70;66.40
9393;DHT22;4736;52.508;13.422;2023-08-30T09:07:49;18.90;66.30
9393;DHT22;4736;52.508;13.422;2023-08-30T09:10:55;18.80;64.80
9393;DHT22;4736;52.508;13.422;2023-08-30T09:13:58;18.50;65.50
9393;DHT22;4736;52.508;13.422;2023-08-30T09:17:02;18.40;65.60
9393;DHT22;4736;52.508;13.422;2023-08-30T09:20:07;18.80;65.90
9393;DHT22;4736;52.508;13.422;2023-08-30T09:23:19;19.10;64.00
9393;DHT22;4736;52.508;13.422;2023-08-30T09:26:26;19.30;64.30
9393;DHT22;4736;52.508;13.422;2023-08-30T09:29:30;19.20;63.20
9393;DHT22;4736;52.508;13.422;2023-08-30T09:32:39;19.20;62.70
9393;DHT22;4736;52.508;13.422;2023-08-30T09:35:46;19.30;62.40
9393;DHT22;4736;52.508;13.422;2023-08-30T09:38:50;19.20;61.70
9393;DHT22;4736;52.508;13.422;2023-08-30T09:41:54;19.00;63.40
9393;DHT22;4736;52.508;13.422;2023-08-30T09:44:58;19.00;63.20
9393;DHT22;4736;52.508;13.422;2023-08-30T09:48:02;19.00;63.30
9393;DHT22;4736;52.508;13.422;2023-08-30T09:51:07;19.20;63.20
9393;DHT22;4736;52.508;13.422;2023-08-30T09:54:14;19.20;64.00
9393;DHT22;4736;52.508;13.422;2023-08-30T09:57:22;19.30;64.30
9393;DHT22;4736;52.508;13.422;2023-08-30T10:00:25;19.50;63.40
9393;DHT22;4736;52.508;13.422;2023-08-30T10:03:29;19.90;64.10
9393;DHT22;4736;52.508;13.422;2023-08-30T10:06:36;20.00;61.90
9393;DHT22;4736;52.508;13.422;2023-08-30T10:09:41;19.90;60.20
9393;DHT22;4736;52.508;13.422;2023-08-30T10:13:05;19.70;60.90
9393;DHT22;4736;52.508;13.422;2023-08-30T10:16:15;19.50;60.80
9393;DHT22;4736;52.508;13.422;2023-08-30T10:19:23;19.40;62.00
9393;DHT22;4736;52.508;13.422;2023-08-30T10:22:27;19.40;61.90
9393;DHT22;4736;52.508;13.422;2023-08-30T10:25:33;19.50;61.50
9393;DHT22;4736;52.508;13.422;2023-08-30T10:28:37;19.70;60.20
9393;DHT22;4736;52.508;13.422;2023-08-30T10:31:41;19.90;60.80
9393;DHT22;4736;52.508;13.422;2023-08-30T10:34:47;19.90;59.90
9393;DHT22;4736;52.508;13.422;2023-08-30T10:37:54;20.00;60.50
9393;DHT22;4736;52.508;13.422;2023-08-30T10:41:07;20.30;60.40
9393;DHT22;4736;52.508;13.422;2023-08-30T10:44:14;20.30;60.90
9393;DHT22;4736;52.508;13.422;2023-08-30T10:47:22;20.40;58.60
9393;DHT22;4736;52.508;13.422;2023-08-30T10:50:29;20.50;60.30
9393;DHT22;4736;52.508;13.422;2023-08-30T10:53:33;20.40;61.40
9393;DHT22;4736;52.508;13.422;2023-08-30T10:56:45;20.60;60.40
9393;DHT22;4736;52.508;13.422;2023-08-30T11:00:07;20.10;60.10
9393;DHT22;4736;52.508;13.422;2023-08-30T11:03:14;20.50;59.80
9393;DHT22;4736;52.508;13.422;2023-08-30T11:06:17;20.90;59.10
9393;DHT22;4736;52.508;13.422;2023-08-30T11:09:21;21.10;59.00
9393;DHT22;4736;52.508;13.422;2023-08-30T11:12:26;21.30;57.70
9393;DHT22;4736;52.508;13.422;2023-08-30T11:15:31;20.70;57.30
9393;DHT22;4736;52.508;13.422;2023-08-30T11:18:37;20.50;58.20
9393;DHT22;4736;52.508;13.422;2023-08-30T11:21:43;20.30;58.60
9393;DHT22;4736;52.508;13.422;2023-08-30T11:24:47;20.40;58.40
9393;DHT22;4736;52.508;13.422;2023-08-30T11:28:01;20.30;58.30
9393;DHT22;4736;52.508;13.422;2023-08-30T11:31:04;20.50;59.00
9393;DHT22;4736;52.508;13.422;2023-08-30T11:34:08;20.60;57.50
9393;DHT22;4736;52.508;13.422;2023-08-30T11:37:12;20.50;57.00
9393;DHT22;4736;52.508;13.422;2023-08-30T11:40:15;20.60;56.40
9393;DHT22;4736;52.508;13.422;2023-08-30T11:43:19;20.70;56.20
9393;DHT22;4736;52.508;13.422;2023-08-30T11:46:22;20.90;56.50
9393;DHT22;4736;52.508;13.422;2023-08-30T11:49:27;21.30;56.20
9393;DHT22;4736;52.508;13.422;2023-08-30T11:52:30;21.50;56.30
9393;DHT22;4736;52.508;13.422;2023-08-30T11:55:34;21.50;54.70
9393;DHT22;4736;52.508;13.422;2023-08-30T11:58:38;21.40;56.10
9393;DHT22;4736;52.508;13.422;2023-08-30T12:01:42;21.50;56.00
9393;DHT22;4736;52.508;13.422;2023-08-30T12:04:46;21.30;55.60
9393;DHT22;4736;52.508;13.422;2023-08-30T12:07:50;20.90;56.70
9393;DHT22;4736;52.508;13.422;2023-08-30T12:10:53;21.10;56.70
9393;DHT22;4736;52.508;13.422;2023-08-30T12:14:03;21.30;56.60
9393;DHT22;4736;52.508;13.422;2023-08-30T12:17:08;21.40;56.90
9393;DHT22;4736;52.508;13.422;2023-08-30T12:20:15;21.30;54.80
9393;DHT22;4736;52.508;13.422;2023-08-30T12:23:23;21.30;55.40
9393;DHT22;4736;52.508;13.422;2023-08-30T12:26:31;21.00;57.10
9393;DHT22;4736;52.508;13.422;2023-08-30T12:29:38;20.90;55.90
9393;DHT22;4736;52.508;13.422;2023-08-30T12:32:42;20.80;56.70
9393;DHT22;4736;52.508;13.422;2023-08-30T12:35:45;21.00;56.70
9393;DHT22;4736;52.508;13.422;2023-08-30T12:38:49;20.90;56.50
9393;DHT22;4736;52.508;13.422;2023-08-30T12:41:52;21.00;56.80
9393;DHT22;4736;52.508;13.422;2023-08-30T12:44:56;21.00;57.00
9393;DHT22;4736;52.508;13.422;2023-08-30T12:47:59;20.70;56.70
9393;DHT22;4736;52.508;13.422;2023-08-30T12:51:03;20.40;56.90
9393;DHT22;4736;52.508;13.422;2023-08-30T12:54:06;20.30;57.70
9393;DHT22;4736;52.508;13.422;2023-08-30T12:57:09;20.30;57.00
9393;DHT22;4736;52.508;13.422;2023-08-30T13:00:16;20.40;56.60
9393;DHT22;4736;52.508;13.422;2023-08-30T13:03:53;20.70;56.90
9393;DHT22;4736;52.508;13.422;2023-08-30T13:06:56;21.00;57.00
9393;DHT22;4736;52.508;13.422;2023-08-30T13:09:59;20.90;57.30
9393;DHT22;4736;52.508;13.422;2023-08-30T13:13:02;20.70;56.90
9393;DHT22;4736;52.508;13.422;2023-08-30T13:16:07;20.80;58.30
9393;DHT22;4736;52.508;13.422;2023-08-30T13:19:10;20.90;57.20
9393;DHT22;4736;52.508;13.422;2023-08-30T13:22:13;20.70;58.40
9393;DHT22;4736;52.508;13.422;2023-08-30T13:25:16;20.80;58.10
9393;DHT22;4736;52.508;13.422;2023-08-30T13:28:20;20.80;57.80
9393;DHT22;4736;52.508;13.422;2023-08-30T13:31:24;21.10;57.20
9393;DHT22;4736;52.508;13.422;2023-08-30T13:34:27;21.10;57.40
9393;DHT22;4736;52.508;13.422;2023-08-30T13:37:30;21.60;56.30
9393;DHT22;4736;52.508;13.422;2023-08-30T13:40:33;21.50;56.70
9393;DHT22;4736;52.508;13.422;2023-08-30T13:43:37;21.70;55.70
9393;DHT22;4736;52.508;13.422;2023-08-30T13:46:42;21.50;55.70
9393;DHT22;4736;52.508;13.422;2023-08-30T13:49:46;21.20;56.60
9393;DHT22;4736;52.508;13.422;2023-08-30T13:52:49;21.10;56.80
9393;DHT22;4736;52.508;13.422;2023-08-30T13:55:53;21.40;56.00
9393;DHT22;4736;52.508;13.422;2023-08-30T13:58:56;21.40;56.30
9393;DHT22;4736;52.508;13.422;2023-08-30T14:02:01;21.40;55.90
9393;DHT22;4736;52.508;13.422;2023-08-30T14:05:07;21.50;56.20
9393;DHT22;4736;52.508;13.422;2023-08-30T14:08:10;21.60;56.10
9393;DHT22;4736;52.508;13.422;2023-08-30T14:11:14;21.90;55.10
9393;DHT22;4736;52.508;13.422;2023-08-30T14:14:17;22.20;56.50
9393;DHT22;4736;52.508;13.422;2023-08-30T14:17:21;22.50;55.20
9393;DHT22;4736;52.508;13.422;2023-08-30T14:20:27;22.80;55.80
9393;DHT22;4736;52.508;13.422;2023-08-30T14:23:30;22.90;54.00
9393;DHT22;4736;52.508;13.422;2023-08-30T14:26:33;22.50;54.40
9393;DHT22;4736;52.508;13.422;2023-08-30T14:29:36;22.50;54.40
9393;DHT22;4736;52.508;13.422;2023-08-30T14:32:40;22.10;54.00
9393;DHT22;4736;52.508;13.422;2023-08-30T14:35:44;22.10;54.30
9393;DHT22;4736;52.508;13.422;2023-08-30T14:38:47;22.20;54.60
9393;DHT22;4736;52.508;13.422;2023-08-30T14:41:50;21.90;53.10
9393;DHT22;4736;52.508;13.422;2023-08-30T14:44:53;21.90;53.90
9393;DHT22;4736;52.508;13.422;2023-08-30T14:47:57;22.10;53.80
9393;DHT22;4736;52.508;13.422;2023-08-30T14:51:01;22.40;53.50
9393;DHT22;4736;52.508;13.422;2023-08-30T14:54:05;22.50;51.90
9393;DHT22;4736;52.508;13.422;2023-08-30T14:57:08;22.70;52.20
9393;DHT22;4736;52.508;13.422;2023-08-30T15:00:12;23.10;51.10
9393;DHT22;4736;52.508;13.422;2023-08-30T15:03:16;23.30;49.70
9393;DHT22;4736;52.508;13.422;2023-08-30T15:06:20;23.20;51.10
9393;DHT22;4736;52.508;13.422;2023-08-30T15:09:23;23.10;52.20
9393;DHT22;4736;52.508;13.422;2023-08-30T15:12:27;23.00;50.20
9393;DHT22;4736;52.508;13.422;2023-08-30T15:15:30;22.80;50.70
9393;DHT22;4736;52.508;13.422;2023-08-30T15:18:35;22.60;51.70
9393;DHT22;4736;52.508;13.422;2023-08-30T15:21:38;22.50;52.60
9393;DHT22;4736;52.508;13.422;2023-08-30T15:24:46;22.20;53.60
9393;DHT22;4736;52.508;13.422;2023-08-30T15:27:49;21.90;54.60
9393;DHT22;4736;52.508;13.422;2023-08-30T15:30:52;21.30;53.30
9393;DHT22;4736;52.508;13.422;2023-08-30T15:33:57;21.00;53.60
9393;DHT22;4736;52.508;13.422;2023-08-30T15:37:01;20.80;54.10
9393;DHT22;4736;52.508;13.422;2023-08-30T15:40:06;20.70;54.40
9393;DHT22;4736;52.508;13.422;2023-08-30T15:43:11;20.60;54.80
9393;DHT22;4736;52.508;13.422;2023-08-30T15:46:15;20.30;54.20
9393;DHT22;4736;52.508;13.422;2023-08-30T15:49:20;20.30;54.00
9393;DHT22;4736;52.508;13.422;2023-08-30T15:52:23;20.30;53.50
9393;DHT22;4736;52.508;13.422;2023-08-30T15:55:26;20.30;53.90
9393;DHT22;4736;52.508;13.422;2023-08-30T15:58:30;20.30;54.40
9393;DHT22;4736;52.508;13.422;2023-08-30T16:01:33;20.00;53.90
9393;DHT22;4736;52.508;13.422;2023-08-30T16:04:38;20.00;53.60
9393;DHT22;4736;52.508;13.422;2023-08-30T16:07:41;20.00;54.00
9393;DHT22;4736;52.508;13.422;2023-08-30T16:10:51;20.10;54.20
9393;DHT22;4736;52.508;13.422;2023-08-30T16:13:55;20.20;53.60
9393;DHT22;4736;52.508;13.422;2023-08-30T16:16:59;20.20;54.00
9393;DHT22;4736;52.508;13.422;2023-08-30T16:20:04;20.30;54.30
9393;DHT22;4736;52.508;13.422;2023-08-30T16:23:07;20.20;54.00
9393;DHT22;4736;52.508;13.422;2023-08-30T16:26:10;20.10;55.00
9393;DHT22;4736;52.508;13.422;2023-08-30T16:29:14;20.00;55.20
9393;DHT22;4736;52.508;13.422;2023-08-30T16:32:17;19.80;56.00
9393;DHT22;4736;52.508;13.422;2023-08-30T16:35:22;19.70;56.50
9393;DHT22;4736;52.508;13.422;2023-08-30T16:38:26;19.70;56.70
9393;DHT22;4736;52.508;13.422;2023-08-30T16:41:29;19.70;57.20
9393;DHT22;4736;52.508;13.422;2023-08-30T16:44:32;19.60;58.10
9393;DHT22;4736;52.508;13.422;2023-08-30T16:47:35;19.60;58.30
9393;DHT22;4736;52.508;13.422;2023-08-30T16:51:01;19.50;58.80
9393;DHT22;4736;52.508;13.422;2023-08-30T16:54:06;19.50;59.30
9393;DHT22;4736;52.508;13.422;2023-08-30T16:57:09;19.50;59.80
9393;DHT22;4736;52.508;13.422;2023-08-30T17:00:13;19.40;59.90
9393;DHT22;4736;52.508;13.422;2023-08-30T17:03:17;19.30;60.00
9393;DHT22;4736;52.508;13.422;2023-08-30T17:06:22;19.20;60.10
9393;DHT22;4736;52.508;13.422;2023-08-30T17:09:25;19.10;60.30
9393;DHT22;4736;52.508;13.422;2023-08-30T17:12:29;19.00;60.70
9393;DHT22;4736;52.508;13.422;2023-08-30T17:15:32;19.00;60.70
9393;DHT22;4736;52.508;13.422;2023-08-30T17:18:36;18.90;60.90
9393;DHT22;4736;52.508;13.422;2023-08-30T17:21:41;18.80;61.20
9393;DHT22;4736;52.508;13.422;2023-08-30T17:24:44;18.70;61.50
9393;DHT22;4736;52.508;13.422;2023-08-30T17:27:48;18.70;61.80
9393;DHT22;4736;52.508;13.422;2023-08-30T17:30:51;18.60;62.10
9393;DHT22;4736;52.508;13.422;2023-08-30T17:33:54;18.50;62.90
9393;DHT22;4736;52.508;13.422;2023-08-30T17:36:59;18.40;63.50
9393;DHT22;4736;52.508;13.422;2023-08-30T17:40:09;18.30;63.80
9393;DHT22;4736;52.508;13.422;2023-08-30T17:43:13;18.30;64.10
9393;DHT22;4736;52.508;13.422;2023-08-30T17:46:16;18.20;64.60
9393;DHT22;4736;52.508;13.422;2023-08-30T17:49:22;18.10;64.70
9393;DHT22;4736;52.508;13.422;2023-08-30T17:52:28;18.00;64.80
9393;DHT22;4736;52.508;13.422;2023-08-30T17:55:31;18.00;65.30
9393;DHT22;4736;52.508;13.422;2023-08-30T17:58:34;17.80;65.50
9393;DHT22;4736;52.508;13.422;2023-08-30T18:01:38;17.80;65.60
9393;DHT22;4736;52.508;13.422;2023-08-30T18:04:41;17.80;65.80
9393;DHT22;4736;52.508;13.422;2023-08-30T18:07:46;17.60;66.00
9393;DHT22;4736;52.508;13.422;2023-08-30T18:10:52;17.60;66.10
9393;DHT22;4736;52.508;13.422;2023-08-30T18:13:55;17.50;66.20
9393;DHT22;4736;52.508;13.422;2023-08-30T18:16:58;17.40;66.40
9393;DHT22;4736;52.508;13.422;2023-08-30T18:20:01;17.40;66.60
9393;DHT22;4736;52.508;13.422;2023-08-30T18:23:10;17.20;66.80
9393;DHT22;4736;52.508;13.422;2023-08-30T18:26:13;17.20;67.10
9393;DHT22;4736;52.508;13.422;2023-08-30T18:29:19;17.10;67.40
9393;DHT22;4736;52.508;13.422;2023-08-30T18:32:22;17.00;67.80
9393;DHT22;4736;52.508;13.422;2023-08-30T18:35:25;17.00;67.90
9393;DHT22;4736;52.508;13.422;2023-08-30T18:38:30;16.90;68.00
9393;DHT22;4736;52.508;13.422;2023-08-30T18:41:33;16.90;68.20
9393;DHT22;4736;52.508;13.422;2023-08-30T18:44:36;16.80;68.20
9393;DHT22;4736;52.508;13.422;2023-08-30T18:47:41;16.70;68.30
9393;DHT22;4736;52.508;13.422;2023-08-30T18:50:48;16.70;68.60
9393;DHT22;4736;52.508;13.422;2023-08-30T18:53:52;16.60;68.70
9393;DHT22;4736;52.508;13.422;2023-08-30T18:56:57;16.50;68.90
9393;DHT22;4736;52.508;13.422;2023-08-30T19:00:01;16.50;69.10
9393;DHT22;4736;52.508;13.422;2023-08-30T19:03:07;16.50;69.20
9393;DHT22;4736;52.508;13.422;2023-08-30T19:06:11;16.40;69.30
9393;DHT22;4736;52.508;13.422;2023-08-30T19:09:17;16.40;69.40
9393;DHT22;4736;52.508;13.422;2023-08-30T19:12:20;16.40;69.60
9393;DHT22;4736;52.508;13.422;2023-08-30T19:15:24;16.20;69.70
9393;DHT22;4736;52.508;13.422;2023-08-30T19:18:27;16.20;69.80
9393;DHT22;4736;52.508;13.422;2023-08-30T19:21:31;16.20;70.00
9393;DHT22;4736;52.508;13.422;2023-08-30T19:24:35;16.20;70.00
9393;DHT22;4736;52.508;13.422;2023-08-30T19:27:39;16.10;70.10
9393;DHT22;4736;52.508;13.422;2023-08-30T19:30:43;16.10;70.20
9393;DHT22;4736;52.508;13.422;2023-08-30T19:33:46;16.10;70.20
9393;DHT22;4736;52.508;13.422;2023-08-30T19:36:50;16.10;70.30
9393;DHT22;4736;52.508;13.422;2023-08-30T19:39:54;16.00;70.30
9393;DHT22;4736;52.508;13.422;2023-08-30T19:42:58;16.00;70.30